This is the latest recevied weather packets stored in our database for station/object LRCL. If no packets are shown the sender has not sent any weather packets the latest 10 day(s).
| Time | Temp. | Humidity | Pressure | Rain* | Wind** | Luminosity | Snow |
|---|---|---|---|---|---|---|---|
| 1777623506 | 10° C | 47% | 1026 hPa | - | - | - | - |
| 1777622588 | 10° C | 47% | 1026 hPa | - | - | - | - |
| 1777621688 | 8.89° C | 50% | 1026 hPa | - | - | - | - |
| 1777620788 | 8.89° C | 50% | 1026 hPa | - | - | - | - |
| 1777619888 | 7.78° C | 62% | 1026 hPa | - | - | - | - |
| 1777618988 | 7.78° C | 62% | 1026 hPa | - | - | - | - |
| 1777618092 | 7.22° C | 71% | 1026 hPa | - | - | - | - |
| 1777617188 | 7.22° C | 71% | 1026 hPa | - | - | - | - |
| 1777616290 | 5° C | 76% | 1026 hPa | - | - | - | - |
| 1777615388 | 5° C | 76% | 1026 hPa | - | - | - | - |
| 1777614488 | 2.78° C | 87% | 1026 hPa | - | - | - | - |
| 1777613588 | 2.78° C | 87% | 1026 hPa | - | - | - | - |
| 1777612689 | 2.22° C | 87% | 1026 hPa | - | - | - | - |
| 1777611788 | 2.22° C | 87% | 1026 hPa | - | - | - | - |
| 1777610888 | 1.11° C | 87% | 1026 hPa | - | - | - | - |
| 1777609988 | 1.11° C | 87% | 1026 hPa | - | - | - | - |
| 1777609088 | 0° C | 93% | 1025 hPa | - | - | - | - |
| 1777608188 | 0° C | 93% | 1025 hPa | - | - | - | - |
| 1777607288 | 1.11° C | 87% | 1025 hPa | - | - | - | - |
| 1777606388 | 1.11° C | 87% | 1025 hPa | - | - | - | - |
| 1777605488 | 1.11° C | 87% | 1025 hPa | - | - | - | - |
| 1777604588 | 1.11° C | 87% | 1025 hPa | - | - | - | - |
| 1777603689 | 1.11° C | 87% | 1025 hPa | - | - | - | - |
| 1777602788 | 1.11° C | 87% | 1025 hPa | - | - | - | - |
| 1777601888 | 2.22° C | 87% | 1025 hPa | - | - | - | - |
* Rain since midnight (hover to see other rain measurements)
** Current wind speed in m/s (hover to see current wind gust speed)